Time;durP1;ratioP1;P1;durP2;ratioP2;P2;SDS_P1;SDS_P2;PMS_P1;PMS_P2;Temp;Humidity;BMP_temperature;BMP_pressure;BME280_temperature;BME280_humidity;BME280_pressure;Samples;Min_cycle;Max_cycle;Signal;HPM_P1;HPM_P2
2021/07/16 00:02:10;;;;;;;12.13;5.93;;;21.60;83.70;;;;;;4881360;29;20025;-65
2021/07/16 00:04:35;;;;;;;15.40;5.63;;;21.60;83.60;;;;;;4898434;29;20056;-66
2021/07/16 00:07:01;;;;;;;13.43;5.68;;;21.60;83.50;;;;;;4881804;29;20100;-66
2021/07/16 00:09:27;;;;;;;12.95;4.97;;;21.60;83.30;;;;;;4897788;29;20052;-66
2021/07/16 00:11:52;;;;;;;13.48;5.30;;;21.60;83.50;;;;;;4881793;29;20443;-66
2021/07/16 00:14:18;;;;;;;13.23;5.15;;;21.60;83.40;;;;;;4898338;29;20068;-66
2021/07/16 00:16:43;;;;;;;13.27;5.60;;;21.60;83.40;;;;;;4897707;29;20088;-66
2021/07/16 00:19:09;;;;;;;12.48;5.15;;;21.60;83.80;;;;;;4897950;29;20028;-66
2021/07/16 00:21:34;;;;;;;12.15;4.57;;;21.50;83.80;;;;;;4897930;29;20041;-65
2021/07/16 00:24:00;;;;;;;13.10;6.00;;;21.60;83.60;;;;;;4897999;29;20037;-65
2021/07/16 00:26:27;;;;;;;18.88;5.60;;;21.50;83.40;;;;;;4897872;29;20032;-67
2021/07/16 00:28:52;;;;;;;16.80;6.22;;;21.50;83.60;;;;;;4897933;29;20056;-65
2021/07/16 00:31:18;;;;;;;15.57;5.60;;;21.50;83.70;;;;;;4897258;29;20084;-66
2021/07/16 00:33:43;;;;;;;15.77;5.15;;;21.40;83.60;;;;;;4897804;29;20525;-66
2021/07/16 00:36:10;;;;;;;14.60;5.60;;;21.50;83.50;;;;;;4880919;29;20035;-65
2021/07/16 00:38:35;;;;;;;13.02;5.88;;;21.50;83.60;;;;;;4880793;29;20081;-65
2021/07/16 00:41:02;;;;;;;13.63;5.45;;;21.50;83.80;;;;;;4896931;29;20498;-65
2021/07/16 00:43:28;;;;;;;14.68;5.35;;;21.50;83.80;;;;;;4898076;29;20033;-66
2021/07/16 00:45:53;;;;;;;19.75;5.43;;;21.40;84.00;;;;;;4897226;29;20438;-65
2021/07/16 00:48:19;;;;;;;12.25;4.80;;;21.40;84.20;;;;;;4897821;29;20487;-66
2021/07/16 00:50:45;;;;;;;11.77;4.95;;;21.50;83.80;;;;;;4897301;29;20444;-65
2021/07/16 00:53:14;;;;;;;13.65;4.88;;;21.50;83.60;;;;;;4894592;29;20121;-65
2021/07/16 00:55:41;;;;;;;15.02;4.97;;;21.40;83.70;;;;;;4891897;29;20558;-65
2021/07/16 00:58:07;;;;;;;12.63;4.63;;;21.40;83.80;;;;;;4877976;29;20028;-66
2021/07/16 01:00:32;;;;;;;14.18;5.30;;;21.40;83.90;;;;;;4879126;29;20032;-65
2021/07/16 01:02:58;;;;;;;14.32;4.80;;;21.40;83.90;;;;;;4880202;29;20037;-65
2021/07/16 01:05:25;;;;;;;17.55;4.72;;;21.40;83.60;;;;;;4880384;29;20064;-65
2021/07/16 01:07:52;;;;;;;17.35;4.88;;;21.40;83.80;;;;;;4897085;29;20028;-65
2021/07/16 01:10:19;;;;;;;14.05;4.32;;;21.40;83.40;;;;;;4896414;29;20032;-65
2021/07/16 01:12:53;;;;;;;15.63;4.90;;;21.40;83.80;;;;;;4895775;29;20037;-66
2021/07/16 01:15:22;;;;;;;13.30;4.35;;;21.40;83.80;;;;;;4896807;29;20029;-65
2021/07/16 01:17:48;;;;;;;10.00;4.40;;;21.40;83.60;;;;;;4897102;29;20032;-64
2021/07/16 01:20:16;;;;;;;11.25;4.05;;;21.40;84.20;;;;;;4897379;29;20507;-66
2021/07/16 01:22:44;;;;;;;11.85;4.20;;;21.30;83.50;;;;;;4896619;29;20111;-66
2021/07/16 01:25:19;;;;;;;12.23;4.22;;;21.30;83.30;;;;;;4897082;29;20495;-65
2021/07/16 01:27:46;;;;;;;13.68;4.75;;;21.30;83.40;;;;;;4896913;29;20111;-66
2021/07/16 01:30:14;;;;;;;10.20;3.97;;;21.30;83.30;;;;;;4896468;29;20039;-66
2021/07/16 01:32:40;;;;;;;13.70;4.25;;;21.30;83.20;;;;;;4896462;29;20025;-65
2021/07/16 01:35:07;;;;;;;10.93;4.00;;;21.20;83.00;;;;;;4896948;29;20398;-65
2021/07/16 01:37:33;;;;;;;18.15;4.95;;;21.30;83.20;;;;;;4896424;29;20028;-66
2021/07/16 01:39:59;;;;;;;11.80;4.47;;;21.30;83.00;;;;;;4879833;29;20115;-65
2021/07/16 01:42:37;;;;;;;9.32;4.28;;;21.30;82.80;;;;;;4880253;29;20035;-66
2021/07/16 01:45:09;;;;;;;14.52;4.40;;;21.30;83.00;;;;;;4896623;29;20036;-66
2021/07/16 01:47:35;;;;;;;11.70;3.83;;;21.30;83.00;;;;;;4896442;29;20064;-66
2021/07/16 01:50:03;;;;;;;10.43;4.07;;;21.20;82.90;;;;;;4896840;29;20029;-65
2021/07/16 01:52:29;;;;;;;9.18;3.65;;;21.30;82.60;;;;;;4896276;29;20039;-65
2021/07/16 01:54:54;;;;;;;12.18;3.70;;;21.20;82.70;;;;;;4895942;29;20398;-65
2021/07/16 01:57:20;;;;;;;8.43;3.38;;;21.20;82.40;;;;;;4895961;29;20036;-64
2021/07/16 01:59:45;;;;;;;12.38;4.07;;;21.20;82.50;;;;;;4896658;29;20522;-65
2021/07/16 02:02:11;;;;;;;10.43;3.50;;;21.20;82.60;;;;;;4879192;29;20060;-65
2021/07/16 02:04:37;;;;;;;11.70;3.97;;;21.20;82.80;;;;;;4896032;29;20039;-65
2021/07/16 02:07:03;;;;;;;9.75;4.10;;;21.20;82.60;;;;;;4879452;29;20036;-65
2021/07/16 02:09:28;;;;;;;9.48;3.55;;;21.20;83.10;;;;;;4896286;29;20046;-65
2021/07/16 02:11:57;;;;;;;11.77;4.00;;;21.20;83.20;;;;;;4879377;29;20443;-65
2021/07/16 02:14:24;;;;;;;10.02;4.05;;;21.20;83.10;;;;;;4895965;29;20032;-66
2021/07/16 02:16:49;;;;;;;10.55;3.90;;;21.20;82.80;;;;;;4879417;29;20080;-65
2021/07/16 02:19:15;;;;;;;14.10;4.10;;;21.20;82.50;;;;;;4896570;29;20025;-64
2021/07/16 02:21:40;;;;;;;11.57;4.28;;;21.10;82.60;;;;;;4894755;29;20033;-65
2021/07/16 02:24:06;;;;;;;10.10;3.78;;;21.10;82.90;;;;;;4889255;29;20036;-65
2021/07/16 02:26:31;;;;;;;11.57;4.45;;;21.10;83.00;;;;;;4891088;29;20513;-66
2021/07/16 02:28:57;;;;;;;11.60;5.13;;;21.10;83.00;;;;;;4900598;29;20083;-64
2021/07/16 02:31:22;;;;;;;11.82;4.68;;;21.10;82.90;;;;;;4895685;29;20582;-65
2021/07/16 02:33:48;;;;;;;12.50;4.63;;;21.10;82.80;;;;;;4896070;29;20036;-65
2021/07/16 02:36:17;;;;;;;9.75;4.50;;;21.10;82.90;;;;;;4879364;29;20036;-64
2021/07/16 02:38:43;;;;;;;14.93;4.75;;;21.10;82.50;;;;;;4896524;29;20049;-65
2021/07/16 02:41:08;;;;;;;13.15;5.10;;;21.10;82.50;;;;;;4896212;29;20091;-65
2021/07/16 02:43:36;;;;;;;17.65;5.03;;;21.00;82.80;;;;;;4896463;29;20519;-65
2021/07/16 02:46:01;;;;;;;11.70;4.30;;;21.00;83.00;;;;;;4879350;29;20095;-65
2021/07/16 02:48:27;;;;;;;15.57;5.10;;;21.10;83.20;;;;;;4879121;29;20032;-65
2021/07/16 02:50:53;;;;;;;10.85;4.30;;;21.00;83.40;;;;;;4896255;29;20040;-65
2021/07/16 02:53:20;;;;;;;9.77;4.53;;;21.00;83.50;;;;;;4879513;29;20399;-66
2021/07/16 02:55:47;;;;;;;12.30;4.70;;;21.00;83.60;;;;;;4895960;29;20024;-65
2021/07/16 02:58:12;;;;;;;11.30;4.55;;;21.00;83.30;;;;;;4878908;29;20638;-66
2021/07/16 03:00:39;;;;;;;12.45;4.88;;;21.00;83.20;;;;;;4896158;29;20069;-65
2021/07/16 03:03:05;;;;;;;9.98;4.40;;;21.00;83.20;;;;;;4880060;29;20084;-65
2021/07/16 03:05:37;;;;;;;10.35;4.30;;;21.00;83.40;;;;;;4899558;29;20033;-65
2021/07/16 03:08:08;;;;;;;13.68;5.10;;;21.00;83.20;;;;;;4882283;29;20036;-65
2021/07/16 03:10:40;;;;;;;15.18;5.10;;;21.00;83.40;;;;;;4883000;29;20100;-65
2021/07/16 03:13:11;;;;;;;12.68;5.00;;;21.00;82.90;;;;;;4899361;29;20032;-65
2021/07/16 03:15:37;;;;;;;10.35;4.45;;;20.90;83.30;;;;;;4899081;29;20108;-65
2021/07/16 03:18:04;;;;;;;14.15;4.43;;;21.00;83.30;;;;;;4899070;29;20067;-65
2021/07/16 03:20:35;;;;;;;11.40;4.65;;;20.90;83.30;;;;;;4882742;29;20027;-64
2021/07/16 03:23:01;;;;;;;10.27;4.05;;;20.90;83.40;;;;;;4882114;29;20119;-64
2021/07/16 03:25:28;;;;;;;11.77;4.10;;;20.90;83.40;;;;;;4882269;29;20132;-65
2021/07/16 03:27:54;;;;;;;12.80;4.75;;;20.90;83.50;;;;;;4898690;29;20032;-65
2021/07/16 03:30:26;;;;;;;11.48;4.40;;;20.90;83.40;;;;;;4898785;29;20056;-66
2021/07/16 03:32:52;;;;;;;15.38;4.53;;;20.90;82.90;;;;;;4882622;29;20491;-64
2021/07/16 03:35:19;;;;;;;10.45;4.70;;;20.90;83.20;;;;;;4898927;29;20116;-63
2021/07/16 03:37:45;;;;;;;9.65;4.60;;;20.90;83.40;;;;;;4882102;29;20056;-64
2021/07/16 03:40:14;;;;;;;12.07;4.38;;;20.90;83.30;;;;;;4882033;29;20033;-64
2021/07/16 03:42:40;;;;;;;10.55;4.72;;;20.90;83.70;;;;;;4898907;29;20017;-65
2021/07/16 03:45:07;;;;;;;10.95;4.20;;;20.90;83.20;;;;;;4898692;29;20067;-65
2021/07/16 03:47:33;;;;;;;13.45;4.45;;;20.90;83.40;;;;;;4898682;29;20499;-64
2021/07/16 03:49:58;;;;;;;11.82;4.55;;;20.80;83.40;;;;;;4881920;29;20083;-65
2021/07/16 03:52:25;;;;;;;11.38;4.15;;;20.80;83.60;;;;;;4881757;29;20127;-64
2021/07/16 03:54:51;;;;;;;11.10;4.32;;;20.90;83.70;;;;;;4898630;29;20467;-65
2021/07/16 03:57:16;;;;;;;9.30;4.03;;;20.90;83.60;;;;;;4881497;29;20036;-64
2021/07/16 03:59:42;;;;;;;12.40;4.93;;;20.80;83.40;;;;;;4882089;29;20061;-64
2021/07/16 04:02:08;;;;;;;11.02;4.30;;;20.90;83.70;;;;;;4882050;29;20027;-65
2021/07/16 04:04:33;;;;;;;9.15;4.10;;;20.80;83.70;;;;;;4881250;29;20749;-66
2021/07/16 04:07:00;;;;;;;12.18;5.00;;;20.80;83.30;;;;;;4898564;29;20048;-65
2021/07/16 04:09:27;;;;;;;11.85;4.72;;;20.80;83.60;;;;;;4881531;29;20119;-64
2021/07/16 04:12:05;;;;;;;13.40;4.72;;;20.80;83.50;;;;;;4898164;29;20040;-64
2021/07/16 04:14:35;;;;;;;12.85;4.75;;;20.80;83.50;;;;;;4884915;29;20050;-65
2021/07/16 04:17:03;;;;;;;14.85;4.70;;;20.80;83.70;;;;;;4898595;29;20127;-65
2021/07/16 04:19:28;;;;;;;13.60;4.70;;;20.80;83.50;;;;;;4897940;29;20033;-64
2021/07/16 04:21:54;;;;;;;12.43;5.20;;;20.70;83.20;;;;;;4901868;29;20466;-64
2021/07/16 04:24:19;;;;;;;13.57;5.03;;;20.80;83.50;;;;;;4899525;29;20024;-61
2021/07/16 04:26:45;;;;;;;16.10;4.90;;;20.80;83.70;;;;;;4887335;29;20040;-65
2021/07/16 04:29:10;;;;;;;15.30;5.35;;;20.80;83.70;;;;;;4898170;29;20028;-64
2021/07/16 04:31:36;;;;;;;14.13;5.50;;;20.80;83.90;;;;;;4880204;29;20031;-64
2021/07/16 04:34:03;;;;;;;13.98;5.75;;;20.80;83.70;;;;;;4890483;29;20028;-64
2021/07/16 04:36:29;;;;;;;18.33;6.13;;;20.70;83.50;;;;;;4891873;29;20431;-64
2021/07/16 04:38:54;;;;;;;13.45;5.50;;;20.70;83.60;;;;;;4917067;29;20028;-64
2021/07/16 04:41:20;;;;;;;14.27;5.63;;;20.70;83.50;;;;;;4905476;29;20040;-65
2021/07/16 04:43:45;;;;;;;14.77;5.38;;;20.70;83.60;;;;;;4881237;29;20115;-64
2021/07/16 04:46:11;;;;;;;19.40;5.97;;;20.70;83.60;;;;;;4897029;29;20033;-64
2021/07/16 04:48:36;;;;;;;15.80;5.43;;;20.70;83.60;;;;;;4897960;29;20033;-64
2021/07/16 04:51:02;;;;;;;16.88;6.43;;;20.70;84.10;;;;;;4897463;29;20084;-66
2021/07/16 04:53:27;;;;;;;15.27;5.63;;;20.70;83.60;;;;;;4881136;29;20059;-64
2021/07/16 04:55:53;;;;;;;19.10;5.90;;;20.70;83.50;;;;;;4897195;29;20133;-64
2021/07/16 04:58:18;;;;;;;15.88;5.15;;;20.70;83.70;;;;;;4897035;29;20063;-63
2021/07/16 05:00:44;;;;;;;16.67;5.53;;;20.60;83.70;;;;;;4897204;29;20156;-64
2021/07/16 05:03:09;;;;;;;18.55;5.78;;;20.60;83.50;;;;;;4897318;29;20032;-65
2021/07/16 05:05:35;;;;;;;14.52;5.75;;;20.60;83.80;;;;;;4896347;29;20033;-64
2021/07/16 05:08:00;;;;;;;16.08;5.30;;;20.60;83.60;;;;;;4891844;29;20453;-63
2021/07/16 05:10:26;;;;;;;16.05;5.70;;;20.60;83.70;;;;;;4866742;29;20185;-65
2021/07/16 05:12:51;;;;;;;11.82;5.43;;;20.60;83.70;;;;;;4888086;29;20546;-64
2021/07/16 05:15:17;;;;;;;16.83;5.80;;;20.60;83.40;;;;;;4871328;29;20032;-62
2021/07/16 05:17:42;;;;;;;18.23;6.10;;;20.60;83.10;;;;;;4897953;29;20032;-66
2021/07/16 05:20:09;;;;;;;14.55;5.68;;;20.60;83.40;;;;;;4890190;29;20662;-65
2021/07/16 05:22:34;;;;;;;15.20;5.78;;;20.60;83.30;;;;;;4890784;29;20024;-65
2021/07/16 05:25:01;;;;;;;17.45;5.97;;;20.60;83.10;;;;;;4890703;29;20039;-64
2021/07/16 05:27:27;;;;;;;13.48;5.50;;;20.60;83.40;;;;;;4890910;29;20033;-64
2021/07/16 05:29:52;;;;;;;17.67;5.70;;;20.60;83.50;;;;;;4885385;29;20039;-65
2021/07/16 05:32:18;;;;;;;17.77;5.70;;;20.60;83.50;;;;;;4906138;29;20095;-64
2021/07/16 05:34:43;;;;;;;13.77;5.43;;;20.60;83.60;;;;;;4890065;29;20047;-64
2021/07/16 05:37:09;;;;;;;18.13;6.10;;;20.60;83.40;;;;;;4874154;29;20040;-64
2021/07/16 05:39:34;;;;;;;15.68;5.50;;;20.60;83.10;;;;;;4889110;29;20025;-64
2021/07/16 05:42:03;;;;;;;15.68;5.40;;;20.60;83.40;;;;;;4889110;29;20028;-63
2021/07/16 05:44:30;;;;;;;14.10;5.47;;;20.50;83.40;;;;;;4888821;29;20032;-63
2021/07/16 05:46:55;;;;;;;16.77;5.30;;;20.50;83.50;;;;;;4871979;29;20033;-64
2021/07/16 05:49:20;;;;;;;15.00;5.50;;;20.60;83.60;;;;;;4890240;29;20040;-67
2021/07/16 05:51:46;;;;;;;18.83;6.20;;;20.60;83.00;;;;;;4889866;29;20045;-64
2021/07/16 05:54:11;;;;;;;15.40;4.82;;;20.50;83.10;;;;;;4882849;29;20064;-72
2021/07/16 05:56:40;;;;;;;18.02;5.63;;;20.60;83.30;;;;;;4874761;29;20107;-68
2021/07/16 05:59:09;;;;;;;14.07;4.85;;;20.60;82.70;;;;;;4879643;29;20164;-68
2021/07/16 06:01:35;;;;;;;22.17;5.72;;;20.60;82.40;;;;;;4873912;29;20111;-64
2021/07/16 06:04:03;;;;;;;15.52;5.72;;;20.60;82.20;;;;;;4872326;29;20152;-66
2021/07/16 06:06:29;;;;;;;17.10;5.22;;;20.50;82.10;;;;;;4889594;29;20063;-65
2021/07/16 06:08:55;;;;;;;18.98;5.40;;;20.60;82.40;;;;;;4889198;29;20056;-65
2021/07/16 06:11:20;;;;;;;16.35;5.30;;;20.60;82.00;;;;;;4888455;29;20024;-66
2021/07/16 06:13:46;;;;;;;17.83;5.30;;;20.60;82.20;;;;;;4873163;29;20053;-66
2021/07/16 06:16:11;;;;;;;16.63;5.25;;;20.60;81.90;;;;;;4888390;29;20031;-64
2021/07/16 06:18:37;;;;;;;14.13;5.10;;;20.60;81.70;;;;;;4890080;29;20021;-66
2021/07/16 06:21:06;;;;;;;20.15;5.38;;;20.50;81.50;;;;;;4889748;29;20036;-65
2021/07/16 06:23:31;;;;;;;17.65;5.18;;;20.40;81.90;;;;;;4872691;29;20031;-66
2021/07/16 06:25:57;;;;;;;14.27;5.20;;;20.40;81.60;;;;;;4889434;29;20029;-65
2021/07/16 06:28:22;;;;;;;18.33;5.45;;;20.40;81.80;;;;;;4889865;29;20056;-66
2021/07/16 06:30:48;;;;;;;16.35;4.75;;;20.40;81.90;;;;;;4889597;29;20096;-64
2021/07/16 06:33:13;;;;;;;17.23;5.32;;;20.40;81.90;;;;;;4890172;29;20450;-64
2021/07/16 06:35:39;;;;;;;18.38;5.50;;;20.40;81.70;;;;;;4884055;29;20040;-64
2021/07/16 06:38:04;;;;;;;18.92;6.13;;;20.30;82.30;;;;;;4891716;29;20088;-64
2021/07/16 06:40:30;;;;;;;19.45;5.95;;;20.40;82.10;;;;;;4900988;29;20028;-67
2021/07/16 06:42:55;;;;;;;16.90;5.30;;;20.50;81.90;;;;;;4895003;29;20122;-65
2021/07/16 06:45:21;;;;;;;15.27;4.82;;;20.50;82.20;;;;;;4891983;29;20036;-67
2021/07/16 06:47:46;;;;;;;17.23;5.75;;;20.50;82.30;;;;;;4876765;29;20036;-68
2021/07/16 06:50:12;;;;;;;16.23;5.25;;;20.50;82.00;;;;;;4877007;29;20044;-68
2021/07/16 06:52:38;;;;;;;16.42;5.25;;;20.50;82.00;;;;;;4894451;29;21034;-61
2021/07/16 06:55:04;;;;;;;15.57;4.82;;;20.50;81.60;;;;;;4892087;29;20037;-65
2021/07/16 06:57:29;;;;;;;15.20;5.63;;;20.40;81.80;;;;;;4890142;29;20025;-65
2021/07/16 06:59:55;;;;;;;16.52;4.75;;;20.40;81.90;;;;;;4876012;29;20088;-66
2021/07/16 07:02:21;;;;;;;18.35;5.28;;;20.40;82.00;;;;;;4891387;29;20112;-64
2021/07/16 07:04:46;;;;;;;21.25;5.30;;;20.50;82.10;;;;;;4871399;29;20064;-65
2021/07/16 07:07:12;;;;;;;19.27;4.70;;;20.50;81.90;;;;;;4886102;29;20063;-66
2021/07/16 07:09:37;;;;;;;18.95;5.05;;;20.50;82.40;;;;;;4893445;29;20383;-67
2021/07/16 07:12:03;;;;;;;15.18;5.20;;;20.50;82.50;;;;;;4893092;29;20048;-65
2021/07/16 07:14:28;;;;;;;18.58;5.32;;;20.50;82.40;;;;;;4891706;29;20024;-65
2021/07/16 07:16:54;;;;;;;18.45;4.65;;;20.50;82.70;;;;;;4892696;29;20036;-66
2021/07/16 07:19:20;;;;;;;17.15;5.05;;;20.60;83.10;;;;;;4891472;29;20033;-69
2021/07/16 07:21:45;;;;;;;14.85;4.63;;;20.60;82.70;;;;;;4891469;29;20024;-66
2021/07/16 07:24:11;;;;;;;14.88;5.30;;;20.60;83.10;;;;;;4891922;29;20917;-65
2021/07/16 07:26:36;;;;;;;14.68;5.13;;;20.60;83.10;;;;;;4873767;29;20016;-66
2021/07/16 07:29:03;;;;;;;17.88;5.10;;;20.60;83.00;;;;;;4890850;29;20041;-68
2021/07/16 07:31:28;;;;;;;14.98;4.75;;;20.60;83.10;;;;;;4890516;29;20494;-66
2021/07/16 07:33:54;;;;;;;14.90;4.50;;;20.60;83.10;;;;;;4890121;29;20043;-66
2021/07/16 07:36:19;;;;;;;16.95;5.00;;;20.70;83.20;;;;;;4891406;29;20044;-64
2021/07/16 07:38:45;;;;;;;15.65;4.90;;;20.70;83.10;;;;;;4891778;29;20605;-66
2021/07/16 07:41:10;;;;;;;12.80;4.75;;;20.70;83.00;;;;;;4891710;29;20550;-63
2021/07/16 07:43:36;;;;;;;14.73;4.65;;;20.60;83.00;;;;;;4891813;29;20100;-65
2021/07/16 07:46:02;;;;;;;14.27;4.30;;;20.70;82.90;;;;;;4871850;29;20035;-63
2021/07/16 07:48:27;;;;;;;17.67;4.68;;;20.70;83.00;;;;;;4890990;29;20487;-65
2021/07/16 07:50:53;;;;;;;18.67;5.03;;;20.70;83.00;;;;;;4892327;29;20041;-67
2021/07/16 07:53:18;;;;;;;15.15;4.55;;;20.70;82.80;;;;;;4892650;29;20036;-65
2021/07/16 07:55:44;;;;;;;13.55;4.43;;;20.70;82.90;;;;;;4897019;29;20092;-65
2021/07/16 07:58:10;;;;;;;14.73;5.03;;;20.70;82.90;;;;;;4898636;29;20032;-65
2021/07/16 08:00:35;;;;;;;13.32;4.30;;;20.80;82.90;;;;;;4898941;29;20025;-65
2021/07/16 08:03:01;;;;;;;12.88;4.10;;;20.80;82.70;;;;;;4898806;29;20661;-65
2021/07/16 08:05:27;;;;;;;18.70;5.40;;;20.80;82.50;;;;;;4898054;29;20035;-65
2021/07/16 08:07:52;;;;;;;14.27;4.18;;;20.70;82.80;;;;;;4898227;29;20111;-64
2021/07/16 08:10:19;;;;;;;12.65;4.43;;;20.80;82.70;;;;;;4898593;29;20407;-66
2021/07/16 08:12:45;;;;;;;12.48;4.40;;;20.80;82.80;;;;;;4898661;29;20499;-65
2021/07/16 08:15:12;;;;;;;14.77;5.00;;;20.80;83.20;;;;;;4894870;29;20029;-65
2021/07/16 08:17:38;;;;;;;16.90;4.78;;;20.80;83.10;;;;;;4898406;29;20431;-66
2021/07/16 08:20:08;;;;;;;15.18;4.10;;;20.80;83.40;;;;;;4898115;29;20016;-65
2021/07/16 08:22:34;;;;;;;13.63;4.80;;;20.80;83.30;;;;;;4881326;29;20041;-66
2021/07/16 08:24:59;;;;;;;14.65;3.83;;;20.80;83.40;;;;;;4892290;29;20035;-65
2021/07/16 08:27:25;;;;;;;11.32;4.05;;;20.80;83.90;;;;;;4886010;29;20029;-66
2021/07/16 08:29:50;;;;;;;12.15;3.92;;;20.90;83.80;;;;;;4881205;29;20521;-65
2021/07/16 08:32:16;;;;;;;15.27;4.32;;;20.90;83.90;;;;;;4888417;29;20072;-68
2021/07/16 08:34:41;;;;;;;16.83;4.10;;;20.90;84.20;;;;;;4880746;29;20119;-62
2021/07/16 08:37:07;;;;;;;11.32;4.00;;;20.90;84.40;;;;;;4897399;29;20043;-62
2021/07/16 08:39:32;;;;;;;14.55;4.32;;;20.90;84.70;;;;;;4880868;29;20035;-66
2021/07/16 08:42:01;;;;;;;16.10;5.20;;;20.90;84.70;;;;;;4898205;29;20558;-68
2021/07/16 08:44:28;;;;;;;16.83;4.82;;;20.70;83.60;;;;;;4916093;29;20031;-70
2021/07/16 08:46:54;;;;;;;17.83;4.82;;;20.40;85.00;;;;;;4900378;29;20107;-70
2021/07/16 08:49:19;;;;;;;14.27;5.00;;;20.20;85.50;;;;;;4879181;29;20040;-71
2021/07/16 08:51:45;;;;;;;16.42;5.03;;;20.10;87.90;;;;;;4879300;29;20092;-69
2021/07/16 08:54:15;;;;;;;15.63;4.88;;;20.00;87.90;;;;;;4897530;29;20112;-66
2021/07/16 08:56:41;;;;;;;17.60;5.38;;;20.00;89.50;;;;;;4880959;29;20036;-70
2021/07/16 08:59:09;;;;;;;13.10;5.10;;;20.00;87.30;;;;;;4897485;29;20024;-67
2021/07/16 09:01:40;;;;;;;15.50;4.97;;;20.00;87.30;;;;;;4880130;29;20102;-69
2021/07/16 09:04:07;;;;;;;14.38;4.90;;;20.00;88.00;;;;;;4890113;29;20021;-69
2021/07/16 09:06:53;;;;;;;15.38;4.78;;;19.90;87.80;;;;;;4878803;29;20037;-69
2021/07/16 09:09:31;;;;;;;15.82;5.13;;;19.90;87.80;;;;;;4878942;29;20045;-69
2021/07/16 09:11:58;;;;;;;15.57;4.88;;;20.00;90.00;;;;;;4880828;29;20111;-69
2021/07/16 09:14:25;;;;;;;18.33;4.78;;;19.90;88.10;;;;;;4880479;29;20029;-69
2021/07/16 09:16:54;;;;;;;14.30;4.70;;;19.90;90.00;;;;;;4897483;29;20039;-70
2021/07/16 09:19:27;;;;;;;14.85;5.07;;;19.90;88.70;;;;;;4880530;29;20035;-71
2021/07/16 09:22:05;;;;;;;16.02;4.75;;;19.80;88.10;;;;;;4895636;29;20055;-71
2021/07/16 09:24:32;;;;;;;13.30;4.40;;;19.90;88.70;;;;;;4896473;29;20491;-69
2021/07/16 09:26:58;;;;;;;16.73;5.13;;;19.90;89.80;;;;;;4896909;29;20134;-69
2021/07/16 09:29:29;;;;;;;20.10;5.30;;;20.00;88.80;;;;;;4876433;29;20510;-69
2021/07/16 09:32:08;;;;;;;14.43;4.60;;;19.90;89.20;;;;;;4895783;29;20043;-69
2021/07/16 09:34:34;;;;;;;13.35;4.35;;;19.90;89.80;;;;;;4877491;29;20403;-66
2021/07/16 09:37:10;;;;;;;11.90;4.10;;;20.10;88.50;;;;;;4894620;29;20032;-69
2021/07/16 09:39:37;;;;;;;10.68;3.95;;;20.40;87.60;;;;;;4878821;29;20111;-69
2021/07/16 09:42:04;;;;;;;15.38;5.03;;;20.50;86.00;;;;;;4896068;29;20072;-69
2021/07/16 09:44:32;;;;;;;15.55;4.93;;;20.40;86.00;;;;;;4878128;29;20055;-69
2021/07/16 09:47:13;;;;;;;15.82;5.28;;;20.20;86.30;;;;;;4895674;29;20063;-68
2021/07/16 09:49:40;;;;;;;16.65;4.63;;;20.00;88.20;;;;;;4896860;29;20029;-69
2021/07/16 09:52:08;;;;;;;14.93;5.38;;;19.90;90.00;;;;;;4880030;29;20043;-69
2021/07/16 09:54:33;;;;;;;13.98;4.53;;;19.80;89.10;;;;;;4896357;29;20056;-69
2021/07/16 09:56:59;;;;;;;21.27;4.97;;;19.70;90.30;;;;;;4896773;29;20372;-69
2021/07/16 09:59:28;;;;;;;15.88;4.95;;;19.60;90.20;;;;;;4896809;29;20032;-69
2021/07/16 10:01:54;;;;;;;16.98;4.50;;;19.60;90.50;;;;;;4880024;29;20398;-69
2021/07/16 10:04:20;;;;;;;20.52;5.28;;;19.60;90.60;;;;;;4896440;29;20032;-67
2021/07/16 10:06:50;;;;;;;19.23;5.65;;;19.50;91.10;;;;;;4896603;29;20032;-69
2021/07/16 10:09:17;;;;;;;15.75;5.00;;;19.60;92.30;;;;;;4896602;29;20414;-69
2021/07/16 10:11:46;;;;;;;14.40;5.47;;;19.50;92.30;;;;;;4879368;29;20399;-69
2021/07/16 10:14:13;;;;;;;16.42;5.32;;;19.60;93.50;;;;;;4896439;29;20036;-70
2021/07/16 10:16:42;;;;;;;15.10;5.15;;;19.50;93.80;;;;;;4879636;29;20096;-70
2021/07/16 10:19:08;;;;;;;15.48;5.63;;;19.50;93.90;;;;;;4896545;29;20033;-69
2021/07/16 10:21:35;;;;;;;15.65;5.60;;;19.40;93.90;;;;;;4879692;29;20664;-69
2021/07/16 10:24:00;;;;;;;19.73;5.78;;;19.30;94.00;;;;;;4896562;29;20483;-70
2021/07/16 10:26:26;;;;;;;19.40;5.45;;;19.30;94.30;;;;;;4897622;29;20039;-69
2021/07/16 10:28:52;;;;;;;14.73;5.75;;;19.40;94.80;;;;;;4895168;29;20033;-69
2021/07/16 10:31:32;;;;;;;15.50;6.75;;;19.40;94.50;;;;;;4878988;29;20217;-68
2021/07/16 10:34:04;;;;;;;14.73;6.18;;;19.50;94.40;;;;;;4893569;29;20084;-69
2021/07/16 10:36:39;;;;;;;15.15;5.68;;;19.70;94.90;;;;;;4894603;29;20039;-69
2021/07/16 10:39:09;;;;;;;14.80;5.78;;;19.90;94.90;;;;;;4894971;29;20076;-69
2021/07/16 10:41:41;;;;;;;17.50;5.95;;;19.80;94.60;;;;;;4895227;29;20096;-69
2021/07/16 10:44:07;;;;;;;17.15;6.35;;;19.90;94.10;;;;;;4894793;29;20065;-69
2021/07/16 10:46:38;;;;;;;18.48;6.10;;;20.00;94.70;;;;;;4878445;29;20391;-69
2021/07/16 10:49:05;;;;;;;18.05;5.72;;;20.00;93.90;;;;;;4879619;29;20566;-69
2021/07/16 10:51:33;;;;;;;13.48;5.38;;;20.10;93.20;;;;;;4896681;29;20029;-69
2021/07/16 10:54:00;;;;;;;13.82;5.57;;;20.10;90.80;;;;;;4896316;29;20424;-68
2021/07/16 10:56:37;;;;;;;20.42;5.68;;;20.00;92.20;;;;;;4896002;29;20029;-68
2021/07/16 10:59:03;;;;;;;14.18;4.63;;;20.10;91.60;;;;;;4896252;29;20035;-69
2021/07/16 11:01:32;;;;;;;13.90;5.63;;;20.20;91.70;;;;;;4879513;29;20132;-68
2021/07/16 11:04:01;;;;;;;15.82;5.88;;;20.20;91.90;;;;;;4879405;29;20107;-69
2021/07/16 11:07:03;;;;;;;14.88;5.68;;;20.20;91.50;;;;;;4896012;29;20028;-69
2021/07/16 11:09:35;;;;;;;13.43;6.28;;;19.90;90.90;;;;;;4896206;29;20515;-69
2021/07/16 11:12:25;;;;;;;16.23;5.68;;;19.80;91.70;;;;;;4896034;29;20475;-69
2021/07/16 11:14:52;;;;;;;19.90;6.30;;;19.80;91.50;;;;;;4896013;29;20025;-69
2021/07/16 11:17:28;;;;;;;14.23;5.85;;;19.80;91.90;;;;;;4896064;29;20284;-69
2021/07/16 11:20:15;;;;;;;15.52;5.03;;;20.00;91.70;;;;;;4879371;29;20029;-70
2021/07/16 11:23:04;;;;;;;15.60;5.57;;;20.00;91.80;;;;;;4879359;29;20123;-69
2021/07/16 11:25:31;;;;;;;18.73;6.22;;;20.00;92.40;;;;;;4898857;29;20111;-69
2021/07/16 11:27:57;;;;;;;13.27;5.60;;;20.10;92.50;;;;;;4899386;29;20031;-70
2021/07/16 11:30:23;;;;;;;9.82;4.30;;;20.20;93.80;;;;;;4899482;29;20080;-70
2021/07/16 11:32:49;;;;;;;15.05;5.25;;;20.30;91.50;;;;;;4899426;29;20108;-70
2021/07/16 11:35:14;;;;;;;15.73;5.95;;;20.40;91.60;;;;;;4899041;29;20170;-70
2021/07/16 11:37:48;;;;;;;16.58;5.65;;;20.20;91.90;;;;;;4899324;29;20021;-71
2021/07/16 11:40:22;;;;;;;11.43;4.50;;;20.30;92.50;;;;;;4882643;29;20025;-69
2021/07/16 11:42:59;;;;;;;12.32;4.93;;;20.50;91.50;;;;;;4899259;29;20025;-71
2021/07/16 11:45:26;;;;;;;11.32;4.13;;;20.60;92.10;;;;;;4898685;29;20108;-70
2021/07/16 11:47:53;;;;;;;13.38;5.18;;;20.60;91.60;;;;;;4897286;29;20061;-70
2021/07/16 11:50:19;;;;;;;11.77;4.70;;;20.70;90.60;;;;;;4897274;29;20415;-71
2021/07/16 11:52:47;;;;;;;10.57;3.53;;;20.80;92.10;;;;;;4896116;29;20455;-70
2021/07/16 11:55:29;;;;;;;12.10;3.97;;;21.00;90.30;;;;;;4896929;29;20462;-70
2021/07/16 11:57:59;;;;;;;8.00;3.22;;;21.10;90.10;;;;;;4899050;29;20032;-70
2021/07/16 12:00:29;;;;;;;10.80;4.50;;;21.30;88.40;;;;;;4882191;29;20035;-69
2021/07/16 12:03:02;;;;;;;9.77;3.85;;;21.40;88.70;;;;;;4881897;29;20440;-69
2021/07/16 12:05:28;;;;;;;11.93;4.07;;;21.50;86.20;;;;;;4881692;29;20088;-69
2021/07/16 12:07:55;;;;;;;14.50;4.88;;;21.50;86.60;;;;;;4881918;29;20040;-69
2021/07/16 12:10:21;;;;;;;13.55;4.13;;;21.40;87.30;;;;;;4898828;29;20107;-69
2021/07/16 12:12:47;;;;;;;13.43;4.47;;;21.40;85.80;;;;;;4898762;29;20036;-69
2021/07/16 12:15:19;;;;;;;13.07;4.80;;;21.40;86.30;;;;;;4898221;29;20035;-69
2021/07/16 12:17:55;;;;;;;15.43;4.80;;;21.50;86.10;;;;;;4881759;29;20033;-69
2021/07/16 12:20:31;;;;;;;11.82;4.82;;;21.50;90.10;;;;;;4881896;29;20111;-69
2021/07/16 12:22:58;;;;;;;12.55;3.97;;;21.60;85.60;;;;;;4898638;29;20476;-70
2021/07/16 12:25:24;;;;;;;14.95;4.85;;;21.60;86.20;;;;;;4898145;29;20048;-69
2021/07/16 12:28:03;;;;;;;13.55;4.93;;;21.60;86.60;;;;;;4898435;29;20048;-69
2021/07/16 12:30:28;;;;;;;10.57;4.05;;;21.40;85.60;;;;;;4898408;29;20060;-69
2021/07/16 12:33:00;;;;;;;10.85;4.03;;;21.50;85.20;;;;;;4898338;29;20028;-69
2021/07/16 12:35:26;;;;;;;13.55;4.78;;;21.50;85.20;;;;;;4897757;29;20057;-69
2021/07/16 12:37:58;;;;;;;9.60;3.50;;;21.40;85.00;;;;;;4897189;29;20020;-69
2021/07/16 12:40:24;;;;;;;9.52;4.30;;;21.30;85.30;;;;;;4898223;29;20033;-70